createdAt,value
2022-10-26T00:01:04.169Z,11.06
2022-10-26T00:03:30.939Z,11.04
2022-10-26T00:06:03.895Z,11.06
2022-10-26T00:08:30.565Z,11.04
2022-10-26T00:11:00.395Z,11.02
2022-10-26T00:13:27.582Z,11.00
2022-10-26T00:15:54.897Z,10.98
2022-10-26T00:18:22.125Z,10.95
2022-10-26T00:20:48.853Z,10.89
2022-10-26T00:23:15.637Z,10.92
2022-10-26T00:25:42.303Z,10.89
2022-10-26T00:28:08.996Z,10.89
2022-10-26T00:30:39.524Z,10.88
2022-10-26T00:33:06.177Z,10.86
2022-10-26T00:35:45.571Z,10.84
2022-10-26T00:38:12.856Z,10.80
2022-10-26T00:40:39.656Z,10.80
2022-10-26T00:43:37.127Z,10.81
2022-10-26T00:46:06.025Z,10.78
2022-10-26T00:48:36.322Z,10.78
2022-10-26T00:51:06.673Z,10.76
2022-10-26T00:53:33.448Z,10.73
2022-10-26T00:56:00.598Z,10.72
2022-10-26T00:58:27.336Z,10.72
2022-10-26T01:00:54.705Z,10.69
2022-10-26T01:03:25.460Z,10.67
2022-10-26T01:05:53.220Z,10.63
2022-10-26T01:08:20.035Z,10.63
2022-10-26T01:10:46.972Z,10.60
2022-10-26T01:13:14.736Z,10.60
2022-10-26T01:15:53.537Z,10.60
2022-10-26T01:18:28.640Z,10.57
2022-10-26T01:21:34.110Z,10.55
2022-10-26T01:24:09.800Z,10.53
2022-10-26T01:27:01.833Z,10.51
2022-10-26T01:29:47.495Z,10.49
2022-10-26T01:32:33.211Z,10.46
2022-10-26T01:35:18.224Z,10.43
2022-10-26T01:38:10.742Z,10.43
2022-10-26T01:40:42.090Z,10.40
2022-10-26T01:43:10.902Z,10.38
2022-10-26T01:45:40.342Z,10.38
2022-10-26T01:48:08.323Z,10.33
2022-10-26T01:50:35.728Z,10.34
2022-10-26T01:53:02.357Z,10.36
2022-10-26T01:55:42.015Z,10.34
2022-10-26T01:59:04.438Z,10.32
2022-10-26T02:01:49.034Z,10.31
2022-10-26T02:04:15.938Z,10.29
2022-10-26T02:06:42.594Z,10.26
2022-10-26T02:09:20.547Z,10.24
2022-10-26T02:11:48.919Z,10.23
2022-10-26T02:14:24.387Z,10.24
2022-10-26T02:16:56.338Z,10.20
2022-10-26T02:19:33.988Z,10.19
2022-10-26T02:22:12.695Z,10.19
2022-10-26T02:24:40.043Z,10.17
2022-10-26T02:27:08.719Z,10.16
2022-10-26T02:29:36.186Z,10.15
2022-10-26T02:32:03.781Z,10.14
2022-10-26T02:34:31.191Z,10.11
2022-10-26T02:37:00.693Z,10.14
2022-10-26T02:39:32.576Z,10.13
2022-10-26T02:42:02.704Z,10.12
2022-10-26T02:44:31.791Z,10.07
2022-10-26T02:46:58.773Z,10.04
2022-10-26T02:49:25.582Z,10.05
2022-10-26T02:52:07.272Z,10.02
2022-10-26T02:54:42.591Z,10.01
2022-10-26T02:57:14.958Z,10.01
2022-10-26T02:59:43.555Z,10.02
2022-10-26T03:02:11.351Z,10.00
2022-10-26T03:04:38.033Z,10.00
2022-10-26T03:07:04.660Z,10.00
2022-10-26T03:09:31.336Z,10.01
2022-10-26T03:11:58.026Z,10.01
2022-10-26T03:14:24.811Z,10.00
2022-10-26T03:19:38.094Z,10.00
2022-10-26T03:22:04.761Z,9.99
2022-10-26T03:24:31.461Z,9.99
2022-10-26T03:27:01.131Z,10.00
2022-10-26T03:29:28.969Z,10.00
2022-10-26T03:31:55.641Z,9.99
2022-10-26T03:34:22.299Z,10.02
2022-10-26T03:36:49.182Z,10.01
2022-10-26T03:39:15.864Z,10.01
2022-10-26T03:41:42.730Z,10.00
2022-10-26T03:44:09.419Z,10.00
2022-10-26T03:46:36.120Z,9.99
2022-10-26T03:49:02.753Z,9.98
2022-10-26T03:51:29.397Z,9.96
2022-10-26T03:53:56.227Z,9.97
2022-10-26T03:56:23.031Z,10.00
2022-10-26T03:58:49.777Z,9.98
2022-10-26T04:01:16.503Z,9.95
2022-10-26T04:03:43.186Z,9.96
2022-10-26T04:06:09.834Z,9.94
2022-10-26T04:08:36.499Z,9.93
2022-10-26T04:11:04.682Z,9.92
2022-10-26T04:13:31.881Z,9.93
2022-10-26T04:15:58.693Z,9.93
2022-10-26T04:18:25.438Z,9.87
2022-10-26T04:20:52.115Z,9.92
2022-10-26T04:23:19.931Z,9.91
2022-10-26T04:25:46.702Z,9.92
2022-10-26T04:28:14.167Z,9.93
2022-10-26T04:30:41.048Z,9.91
2022-10-26T04:33:07.971Z,9.92
2022-10-26T04:35:35.225Z,9.92
2022-10-26T04:38:04.375Z,9.92
2022-10-26T04:40:32.204Z,9.93
2022-10-26T04:42:58.863Z,9.93
2022-10-26T04:45:28.237Z,9.93
2022-10-26T04:48:05.780Z,9.94
2022-10-26T04:50:32.645Z,9.92
2022-10-26T04:52:59.457Z,9.92
2022-10-26T04:55:26.137Z,9.93
2022-10-26T04:57:55.963Z,9.96
2022-10-26T05:00:25.327Z,9.97
2022-10-26T05:02:52.049Z,9.94
2022-10-26T05:05:18.978Z,9.96
2022-10-26T05:07:54.058Z,9.97
2022-10-26T05:10:20.670Z,9.96
2022-10-26T05:12:54.303Z,9.98
2022-10-26T05:15:21.095Z,9.99
2022-10-26T05:17:48.325Z,10.00
2022-10-26T05:20:15.409Z,9.96
2022-10-26T05:22:42.123Z,9.99
2022-10-26T05:25:09.184Z,9.98
2022-10-26T05:27:35.860Z,9.98
2022-10-26T05:30:02.631Z,9.99
2022-10-26T05:32:29.407Z,9.99
2022-10-26T05:34:56.192Z,9.98
2022-10-26T05:37:22.882Z,9.99
2022-10-26T05:39:49.540Z,9.99
2022-10-26T05:42:16.264Z,9.98
2022-10-26T05:44:42.942Z,9.96
2022-10-26T05:47:09.617Z,9.94
2022-10-26T05:49:36.279Z,9.93
2022-10-26T05:52:02.953Z,9.91
2022-10-26T05:54:29.745Z,9.92
2022-10-26T05:56:56.694Z,9.92
2022-10-26T05:59:23.597Z,9.95
2022-10-26T06:02:08.697Z,9.94
2022-10-26T06:04:43.466Z,9.92
2022-10-26T06:07:18.014Z,9.91
2022-10-26T06:09:45.156Z,9.91
2022-10-26T06:12:14.487Z,9.91
2022-10-26T06:14:43.954Z,9.90
2022-10-26T06:17:19.878Z,9.92
2022-10-26T06:23:16.598Z,9.87
2022-10-26T06:25:56.191Z,9.89
2022-10-26T06:28:22.958Z,9.90
2022-10-26T06:30:49.779Z,9.88
2022-10-26T06:33:30.946Z,9.90
2022-10-26T06:36:06.106Z,9.91
2022-10-26T06:38:34.892Z,9.91
2022-10-26T06:41:01.926Z,9.91
2022-10-26T06:43:33.087Z,9.92
2022-10-26T06:46:23.961Z,9.94
2022-10-26T06:49:19.374Z,9.94
2022-10-26T06:51:56.674Z,9.95
2022-10-26T06:54:53.450Z,10.00
2022-10-26T06:57:23.396Z,10.00
2022-10-26T06:59:53.021Z,10.02
2022-10-26T07:02:20.845Z,10.04
2022-10-26T07:04:48.191Z,10.03
2022-10-26T07:07:21.745Z,10.04
2022-10-26T07:09:48.778Z,10.06
2022-10-26T07:12:15.655Z,10.09
2022-10-26T07:14:42.876Z,10.13
2022-10-26T07:17:11.168Z,10.15
2022-10-26T07:19:38.026Z,10.25
2022-10-26T07:22:05.832Z,10.29
2022-10-26T07:24:32.588Z,10.31
2022-10-26T07:26:59.695Z,10.38
2022-10-26T07:29:27.386Z,10.45
2022-10-26T07:31:55.228Z,10.41
2022-10-26T07:34:22.879Z,10.39
2022-10-26T07:36:52.228Z,10.48
2022-10-26T07:39:19.251Z,10.54
2022-10-26T07:41:48.002Z,10.68
2022-10-26T07:44:14.666Z,10.74
2022-10-26T07:46:41.390Z,10.75
2022-10-26T07:49:08.113Z,10.77
2022-10-26T07:51:36.014Z,10.88
2022-10-26T07:54:02.933Z,11.00
2022-10-26T07:56:30.886Z,11.02
2022-10-26T07:58:58.681Z,11.02
2022-10-26T08:01:26.766Z,11.02
2022-10-26T08:03:55.463Z,10.99
2022-10-26T08:06:22.710Z,11.08
2022-10-26T08:08:53.126Z,11.23
2022-10-26T08:11:20.307Z,11.09
2022-10-26T08:13:47.181Z,11.29
2022-10-26T08:16:16.428Z,11.75
2022-10-26T08:18:44.227Z,12.22
2022-10-26T08:21:21.692Z,12.39
2022-10-26T08:23:57.135Z,12.45
2022-10-26T08:26:25.241Z,12.72
2022-10-26T08:28:52.698Z,13.21
2022-10-26T08:31:20.844Z,13.49
2022-10-26T08:33:48.265Z,13.67
2022-10-26T08:36:24.195Z,14.04
2022-10-26T08:38:51.459Z,13.72
2022-10-26T08:41:34.239Z,14.28
2022-10-26T08:44:10.485Z,14.44
2022-10-26T08:46:42.652Z,14.60
2022-10-26T08:49:21.354Z,14.71
2022-10-26T08:51:50.982Z,14.91
2022-10-26T08:54:41.436Z,15.04
2022-10-26T08:57:36.053Z,15.44
2022-10-26T09:00:08.354Z,15.82
2022-10-26T09:02:35.594Z,15.88
2022-10-26T09:05:02.441Z,15.97
2022-10-26T09:07:57.261Z,16.36
2022-10-26T09:10:42.404Z,16.88
2022-10-26T09:13:19.806Z,17.37
2022-10-26T09:15:50.325Z,17.72
2022-10-26T09:18:33.616Z,18.08
2022-10-26T09:21:31.238Z,18.24
2022-10-26T09:24:26.954Z,18.44
2022-10-26T09:27:16.423Z,18.65
2022-10-26T09:29:45.123Z,18.85
2022-10-26T09:32:19.798Z,18.86
2022-10-26T09:34:55.516Z,18.74
2022-10-26T09:37:37.578Z,18.99
2022-10-26T09:40:16.625Z,19.28
2022-10-26T09:42:59.517Z,19.48
2022-10-26T09:45:33.891Z,19.73
2022-10-26T09:48:11.596Z,19.71
2022-10-26T09:50:40.622Z,19.70
2022-10-26T09:53:07.304Z,20.02
2022-10-26T09:55:39.657Z,20.20
2022-10-26T09:58:15.656Z,19.97
2022-10-26T10:00:44.528Z,20.03
2022-10-26T10:03:28.943Z,20.29
2022-10-26T10:06:19.719Z,20.38
2022-10-26T10:09:11.575Z,20.45
2022-10-26T10:11:46.128Z,20.41
2022-10-26T10:14:17.963Z,20.68
2022-10-26T10:17:01.695Z,20.73
2022-10-26T10:19:30.575Z,20.51
2022-10-26T10:22:02.849Z,20.66
2022-10-26T10:24:32.937Z,20.36
2022-10-26T10:27:05.589Z,20.59
2022-10-26T10:29:34.634Z,20.92
2022-10-26T10:32:03.341Z,21.28
2022-10-26T10:34:37.650Z,21.41
2022-10-26T10:37:05.498Z,21.48
2022-10-26T10:39:35.446Z,20.92
2022-10-26T10:42:04.715Z,20.83
2022-10-26T10:44:34.044Z,21.02
2022-10-26T10:47:04.940Z,20.89
2022-10-26T10:49:36.372Z,21.30
2022-10-26T10:52:04.590Z,21.15
2022-10-26T10:54:33.973Z,21.28
2022-10-26T10:57:18.677Z,20.98
2022-10-26T10:59:51.951Z,21.20
2022-10-26T11:02:43.787Z,20.40
2022-10-26T11:05:23.343Z,20.58
2022-10-26T11:07:56.822Z,20.91
2022-10-26T11:10:28.160Z,21.12
2022-10-26T11:13:06.964Z,21.14
2022-10-26T11:15:39.431Z,20.96
2022-10-26T11:18:09.801Z,20.64
2022-10-26T11:20:42.405Z,20.69
2022-10-26T11:23:13.845Z,20.42
2022-10-26T11:25:59.206Z,20.36
2022-10-26T11:28:41.345Z,20.17
2022-10-26T11:31:16.630Z,20.24
2022-10-26T11:34:12.521Z,19.55
2022-10-26T11:36:42.920Z,19.32
2022-10-26T11:39:44.082Z,19.22
2022-10-26T11:42:22.232Z,19.40
2022-10-26T11:45:10.578Z,19.33
2022-10-26T11:48:17.467Z,19.00
2022-10-26T11:50:47.401Z,18.88
2022-10-26T11:53:18.835Z,18.77
2022-10-26T11:55:53.457Z,18.74
2022-10-26T11:58:28.839Z,18.66
2022-10-26T12:00:59.137Z,18.54
2022-10-26T12:03:28.330Z,18.73
2022-10-26T12:05:55.107Z,18.59
2022-10-26T12:08:31.299Z,18.75
2022-10-26T12:11:09.976Z,18.79
2022-10-26T12:13:44.271Z,18.87
2022-10-26T12:16:35.948Z,18.77
2022-10-26T12:19:09.075Z,18.92
2022-10-26T12:21:36.770Z,18.82
2022-10-26T12:24:22.269Z,18.64
2022-10-26T12:27:31.003Z,18.69
2022-10-26T12:30:18.954Z,18.57
2022-10-26T12:32:48.649Z,18.46
2022-10-26T12:35:44.911Z,18.57
2022-10-26T12:38:27.964Z,18.62
2022-10-26T12:41:07.576Z,18.53
2022-10-26T12:43:40.541Z,18.50
2022-10-26T12:46:13.337Z,18.67
2022-10-26T12:48:45.850Z,18.68
2022-10-26T12:54:04.129Z,18.65
2022-10-26T12:56:37.367Z,18.79
2022-10-26T12:59:32.890Z,18.89
2022-10-26T13:02:37.186Z,18.84
2022-10-26T13:05:25.697Z,18.97
2022-10-26T13:07:52.795Z,18.82
2022-10-26T13:10:24.842Z,18.96
2022-10-26T13:12:54.118Z,19.09
2022-10-26T13:15:36.592Z,19.16
2022-10-26T13:18:10.215Z,19.13
2022-10-26T13:20:38.376Z,19.18
2022-10-26T13:23:16.639Z,19.04
2022-10-26T13:26:02.536Z,19.13
2022-10-26T13:28:34.275Z,18.96
2022-10-26T13:31:01.084Z,19.11
2022-10-26T13:33:35.451Z,19.01
2022-10-26T13:36:14.022Z,18.96
2022-10-26T13:38:40.835Z,19.17
2022-10-26T13:41:15.560Z,19.22
2022-10-26T13:43:43.274Z,19.04
2022-10-26T13:46:23.599Z,19.02
2022-10-26T13:48:50.490Z,19.06
2022-10-26T13:51:25.200Z,19.05
2022-10-26T13:54:00.559Z,18.93
2022-10-26T13:56:34.140Z,19.12
2022-10-26T13:59:03.538Z,19.19
2022-10-26T14:01:34.861Z,19.14
2022-10-26T14:04:25.790Z,19.02
2022-10-26T14:06:53.396Z,19.11
2022-10-26T14:09:21.017Z,19.21
2022-10-26T14:11:58.390Z,19.28
2022-10-26T14:14:27.789Z,19.14
2022-10-26T14:16:54.603Z,19.01
2022-10-26T14:19:31.034Z,19.24
2022-10-26T14:21:58.310Z,19.41
2022-10-26T14:24:45.853Z,19.42
2022-10-26T14:27:44.829Z,19.24
2022-10-26T14:30:30.423Z,19.29
2022-10-26T14:32:58.041Z,19.31
2022-10-26T14:35:29.810Z,19.16
2022-10-26T14:38:07.700Z,19.14
2022-10-26T14:40:37.751Z,19.17
2022-10-26T14:43:05.762Z,19.12
2022-10-26T14:45:53.080Z,19.12
2022-10-26T14:48:34.499Z,18.97
2022-10-26T14:51:17.837Z,18.87
2022-10-26T14:53:50.328Z,18.82
2022-10-26T14:56:24.497Z,18.85
2022-10-26T14:58:51.805Z,18.85
2022-10-26T15:01:33.170Z,18.80
2022-10-26T15:04:05.838Z,18.77
2022-10-26T15:06:40.180Z,18.71
2022-10-26T15:09:19.244Z,18.66
2022-10-26T15:11:49.774Z,18.57
2022-10-26T15:14:18.956Z,18.52
2022-10-26T15:16:56.081Z,18.44
2022-10-26T15:19:26.302Z,18.44
2022-10-26T15:21:56.213Z,18.34
2022-10-26T15:24:34.471Z,18.26
2022-10-26T15:27:19.399Z,18.28
2022-10-26T15:29:51.292Z,18.24
2022-10-26T15:32:31.824Z,18.20
2022-10-26T15:35:27.799Z,18.16
2022-10-26T15:37:55.830Z,18.13
2022-10-26T15:42:54.143Z,18.05
2022-10-26T15:45:30.109Z,17.98
2022-10-26T15:47:58.039Z,17.91
2022-10-26T15:50:27.796Z,17.85
2022-10-26T15:53:09.292Z,17.78
2022-10-26T15:55:38.067Z,17.69
2022-10-26T15:58:04.910Z,17.61
2022-10-26T16:00:32.383Z,17.57
2022-10-26T16:03:00.030Z,17.47
2022-10-26T16:05:28.001Z,17.39
2022-10-26T16:07:54.853Z,17.32
2022-10-26T16:10:25.433Z,17.26
2022-10-26T16:12:53.237Z,17.19
2022-10-26T16:15:25.917Z,17.13
2022-10-26T16:17:54.838Z,17.07
2022-10-26T16:20:24.519Z,17.05
2022-10-26T16:22:52.649Z,16.97
2022-10-26T16:25:25.697Z,16.92
2022-10-26T16:27:55.294Z,16.89
2022-10-26T16:30:24.844Z,16.86
2022-10-26T16:32:56.497Z,16.82
2022-10-26T16:35:23.214Z,16.80
2022-10-26T16:37:51.189Z,16.77
2022-10-26T16:40:18.594Z,16.72
2022-10-26T16:42:48.519Z,16.65
2022-10-26T16:45:17.844Z,16.58
2022-10-26T16:47:44.587Z,16.57
2022-10-26T16:50:12.707Z,16.54
2022-10-26T16:52:43.606Z,16.53
2022-10-26T16:55:10.425Z,16.50
2022-10-26T16:57:37.729Z,16.50
2022-10-26T17:00:06.677Z,16.48
2022-10-26T17:02:34.874Z,16.46
2022-10-26T17:05:04.371Z,16.44
2022-10-26T17:07:33.855Z,16.43
2022-10-26T17:10:00.636Z,16.42
2022-10-26T17:15:17.275Z,16.38
2022-10-26T17:17:46.671Z,16.38
2022-10-26T17:20:13.923Z,16.36
2022-10-26T17:22:40.779Z,16.35
2022-10-26T17:25:07.793Z,16.36
2022-10-26T17:27:34.465Z,16.33
2022-10-26T17:30:02.810Z,16.33
2022-10-26T17:32:30.921Z,16.29
2022-10-26T17:34:57.583Z,16.27
2022-10-26T17:37:24.348Z,16.26
2022-10-26T17:39:52.149Z,16.26
2022-10-26T17:42:18.999Z,16.24
2022-10-26T17:44:47.600Z,16.25
2022-10-26T17:47:14.288Z,16.25
2022-10-26T17:49:40.976Z,16.22
2022-10-26T17:52:07.920Z,16.21
2022-10-26T17:54:34.857Z,16.19
2022-10-26T17:57:01.594Z,16.19
2022-10-26T17:59:28.870Z,16.19
2022-10-26T18:01:55.729Z,16.18
2022-10-26T18:04:23.361Z,16.17
2022-10-26T18:06:50.075Z,16.17
2022-10-26T18:09:17.555Z,16.17
2022-10-26T18:11:44.199Z,16.16
2022-10-26T18:14:12.080Z,16.14
2022-10-26T18:16:40.895Z,16.10
2022-10-26T18:19:07.676Z,16.10
2022-10-26T18:21:37.812Z,16.08
2022-10-26T18:24:07.701Z,16.07
2022-10-26T18:26:35.123Z,16.07
2022-10-26T18:29:02.303Z,16.09
2022-10-26T18:31:30.849Z,16.08
2022-10-26T18:34:03.266Z,16.06
2022-10-26T18:36:31.168Z,16.08
2022-10-26T18:38:58.473Z,16.08
2022-10-26T18:41:26.095Z,16.07
2022-10-26T18:43:55.146Z,16.04
2022-10-26T18:46:24.722Z,16.03
2022-10-26T18:48:52.147Z,16.02
2022-10-26T18:51:21.171Z,16.00
2022-10-26T18:53:50.913Z,16.01
2022-10-26T18:56:19.580Z,15.98
2022-10-26T18:58:49.536Z,15.98
2022-10-26T19:01:23.212Z,15.97
2022-10-26T19:03:59.385Z,15.94
2022-10-26T19:06:29.710Z,15.91
2022-10-26T19:08:56.829Z,15.88
2022-10-26T19:11:25.478Z,15.88
2022-10-26T19:13:54.112Z,15.82
2022-10-26T19:16:43.980Z,15.78
2022-10-26T19:19:10.966Z,15.74
2022-10-26T19:21:38.901Z,15.70
2022-10-26T19:24:13.073Z,15.65
2022-10-26T19:26:43.450Z,15.62
2022-10-26T19:29:16.570Z,15.57
2022-10-26T19:31:46.402Z,15.52
2022-10-26T19:34:14.265Z,15.45
2022-10-26T19:36:44.932Z,15.45
2022-10-26T19:39:14.233Z,15.39
2022-10-26T19:41:40.922Z,15.32
2022-10-26T19:44:08.057Z,15.31
2022-10-26T19:46:34.877Z,15.27
2022-10-26T19:49:02.640Z,15.23
2022-10-26T19:51:31.028Z,15.20
2022-10-26T19:54:03.185Z,15.16
2022-10-26T19:56:36.839Z,15.13
2022-10-26T19:59:04.288Z,15.09
2022-10-26T20:01:31.104Z,15.04
2022-10-26T20:03:58.572Z,15.02
2022-10-26T20:06:25.258Z,14.98
2022-10-26T20:08:53.199Z,14.97
2022-10-26T20:11:20.183Z,14.90
2022-10-26T20:13:48.085Z,14.89
2022-10-26T20:16:17.013Z,14.87
2022-10-26T20:18:47.715Z,14.81
2022-10-26T20:21:17.085Z,14.78
2022-10-26T20:23:44.716Z,14.74
2022-10-26T20:26:18.650Z,14.70
2022-10-26T20:28:49.254Z,14.67
2022-10-26T20:31:17.220Z,14.63
2022-10-26T20:33:44.065Z,14.58
2022-10-26T20:36:11.516Z,14.58
2022-10-26T20:38:39.622Z,14.52
2022-10-26T20:41:10.290Z,14.49
2022-10-26T20:43:41.297Z,14.46
2022-10-26T20:46:22.643Z,14.44
2022-10-26T20:48:50.537Z,14.41
2022-10-26T20:52:15.275Z,14.39
2022-10-26T20:55:00.118Z,14.35
2022-10-26T20:57:30.651Z,14.30
2022-10-26T21:00:06.037Z,14.29
2022-10-26T21:02:34.104Z,14.27
2022-10-26T21:05:02.514Z,14.24
2022-10-26T21:07:29.202Z,14.22
2022-10-26T21:09:56.092Z,14.19
2022-10-26T21:12:22.807Z,14.18
2022-10-26T21:14:51.560Z,14.16
2022-10-26T21:17:18.242Z,14.13
2022-10-26T21:19:46.109Z,14.07
2022-10-26T21:22:13.940Z,14.06
2022-10-26T21:24:40.582Z,14.04
2022-10-26T21:27:07.281Z,14.02
2022-10-26T21:29:33.961Z,13.99
2022-10-26T21:32:00.712Z,13.93
2022-10-26T21:34:27.400Z,13.94
2022-10-26T21:36:54.313Z,13.88
2022-10-26T21:39:21.211Z,13.87
2022-10-26T21:41:47.874Z,13.83
2022-10-26T21:44:42.209Z,13.80
2022-10-26T21:47:01.730Z,13.78
2022-10-26T21:49:28.457Z,13.73
2022-10-26T21:51:56.905Z,13.71
2022-10-26T21:54:24.255Z,13.69
2022-10-26T21:56:50.948Z,13.67
2022-10-26T21:59:17.607Z,13.62
2022-10-26T22:01:44.385Z,13.57
2022-10-26T22:04:11.665Z,13.55
2022-10-26T22:06:38.607Z,13.57
2022-10-26T22:09:05.378Z,13.55
2022-10-26T22:11:33.898Z,13.52
2022-10-26T22:14:00.704Z,13.54
2022-10-26T22:16:29.809Z,13.51
2022-10-26T22:18:58.514Z,13.48
2022-10-26T22:21:26.961Z,13.48
2022-10-26T22:23:54.464Z,13.46
2022-10-26T22:26:23.015Z,13.43
2022-10-26T22:28:52.156Z,13.41
2022-10-26T22:31:24.503Z,13.39
2022-10-26T22:34:02.065Z,13.37
2022-10-26T22:36:32.002Z,13.35
2022-10-26T22:38:58.690Z,13.36
2022-10-26T22:41:25.492Z,13.32
2022-10-26T22:43:52.367Z,13.28
2022-10-26T22:46:25.094Z,13.26
2022-10-26T22:48:57.680Z,13.25
2022-10-26T22:51:25.847Z,13.24
2022-10-26T22:53:57.657Z,13.22
2022-10-26T22:58:53.577Z,13.19
2022-10-26T23:01:23.259Z,13.17
2022-10-26T23:03:50.012Z,13.13
2022-10-26T23:06:18.299Z,13.12
2022-10-26T23:08:45.480Z,13.08
2022-10-26T23:11:17.251Z,13.04
2022-10-26T23:13:44.354Z,13.06
2022-10-26T23:16:13.578Z,13.06
2022-10-26T23:18:40.768Z,13.03
2022-10-26T23:21:08.935Z,13.01
2022-10-26T23:23:36.013Z,13.02
2022-10-26T23:26:08.774Z,13.00
2022-10-26T23:28:35.899Z,12.99
2022-10-26T23:31:02.592Z,12.93
2022-10-26T23:33:29.484Z,12.93
2022-10-26T23:35:57.513Z,12.93
2022-10-26T23:38:25.010Z,12.88
2022-10-26T23:40:53.155Z,12.87
2022-10-26T23:43:20.160Z,12.87
2022-10-26T23:45:47.255Z,12.87
2022-10-26T23:48:14.226Z,12.84
2022-10-26T23:50:44.658Z,12.82
2022-10-26T23:53:12.389Z,12.80
2022-10-26T23:55:39.327Z,12.78
2022-10-26T23:58:06.235Z,12.77
